createdAt,value
2019-02-23T00:03:45.619Z,5.33
2019-02-23T00:08:48.512Z,5.97
2019-02-23T00:13:51.641Z,5.43
2019-02-23T00:18:55.132Z,8.53
2019-02-23T00:23:57.992Z,5.77
2019-02-23T00:29:01.569Z,6.90
2019-02-23T00:34:04.459Z,4.33
2019-02-23T00:39:08.302Z,4.63
2019-02-23T00:44:10.793Z,6.07
2019-02-23T00:49:13.420Z,5.10
2019-02-23T00:54:16.143Z,6.73
2019-02-23T00:59:19.359Z,8.60
2019-02-23T01:04:22.290Z,10.33
2019-02-23T01:09:25.553Z,4.40
2019-02-23T01:14:28.788Z,7.60
2019-02-23T01:19:32.241Z,4.77
2019-02-23T01:24:35.124Z,5.10
2019-02-23T01:29:38.634Z,4.50
2019-02-23T01:34:41.104Z,6.53
2019-02-23T01:39:44.639Z,4.20
2019-02-23T01:44:48.170Z,7.77
2019-02-23T01:49:58.540Z,5.97
2019-02-23T01:54:55.570Z,6.60
2019-02-23T01:59:59.174Z,5.90
2019-02-23T02:05:02.612Z,5.80
2019-02-23T02:10:08.270Z,10.43
2019-02-23T02:15:12.755Z,5.50
2019-02-23T02:20:16.273Z,8.40
2019-02-23T02:25:19.484Z,7.00
2019-02-23T02:30:24.256Z,5.10
2019-02-23T02:35:27.448Z,4.87
2019-02-23T02:40:30.659Z,3.30
2019-02-23T02:45:33.840Z,5.90
2019-02-23T02:50:37.113Z,13.27
2019-02-23T02:55:40.250Z,5.00
2019-02-23T03:00:43.483Z,8.03
2019-02-23T03:05:46.689Z,6.50
2019-02-23T03:10:49.928Z,4.00
2019-02-23T03:15:52.905Z,4.70
2019-02-23T03:20:55.468Z,6.43
2019-02-23T03:25:58.416Z,8.17
2019-02-23T03:31:01.327Z,5.53
2019-02-23T03:36:04.540Z,3.80
2019-02-23T03:41:07.759Z,5.80
2019-02-23T03:46:11.144Z,4.93
2019-02-23T03:51:14.006Z,4.70
2019-02-23T03:56:17.156Z,4.93
2019-02-23T04:01:20.351Z,7.47
2019-02-23T04:06:23.618Z,5.97
2019-02-23T04:11:26.891Z,8.30
2019-02-23T04:16:30.473Z,7.10
2019-02-23T04:21:33.869Z,9.50
2019-02-23T04:26:37.315Z,8.77
2019-02-23T04:31:40.213Z,11.27
2019-02-23T04:36:43.532Z,8.30
2019-02-23T04:41:46.784Z,5.10
2019-02-23T04:46:50.389Z,7.50
2019-02-23T04:51:53.375Z,6.00
2019-02-23T04:56:56.178Z,6.53
2019-02-23T05:01:59.194Z,7.83
2019-02-23T05:07:02.053Z,16.47
2019-02-23T05:12:04.958Z,7.77
2019-02-23T05:17:07.813Z,4.37
2019-02-23T05:22:10.380Z,6.07
2019-02-23T05:27:15.350Z,7.33
2019-02-23T05:32:18.535Z,6.77
2019-02-23T05:37:21.887Z,8.10
2019-02-23T05:42:24.777Z,5.30
2019-02-23T05:47:28.000Z,9.77
2019-02-23T05:52:31.165Z,5.30
2019-02-23T05:57:34.381Z,8.73
2019-02-23T06:02:37.300Z,9.87
2019-02-23T06:07:40.510Z,8.70
2019-02-23T06:12:43.435Z,5.63
2019-02-23T06:17:46.985Z,7.53
2019-02-23T06:22:50.606Z,11.10
2019-02-23T06:27:53.454Z,6.40
2019-02-23T06:32:56.316Z,7.50
2019-02-23T06:37:59.267Z,8.13
2019-02-23T06:43:02.405Z,11.23
2019-02-23T06:48:05.089Z,10.90
2019-02-23T06:53:08.325Z,9.70
2019-02-23T06:58:11.201Z,6.97
2019-02-23T07:03:13.668Z,7.00
2019-02-23T07:08:16.610Z,9.90
2019-02-23T07:13:19.482Z,7.37
2019-02-23T07:18:22.356Z,7.13
2019-02-23T07:23:25.188Z,9.03
2019-02-23T07:28:28.393Z,9.30
2019-02-23T07:33:33.089Z,6.67
2019-02-23T07:38:36.349Z,10.50
2019-02-23T07:43:39.570Z,7.13
2019-02-23T07:48:43.059Z,8.57
2019-02-23T07:53:46.320Z,10.13
2019-02-23T07:58:49.490Z,10.20
2019-02-23T08:03:53.007Z,9.00
2019-02-23T08:08:56.531Z,17.13
2019-02-23T08:13:59.441Z,16.83
2019-02-23T08:19:02.348Z,15.70
2019-02-23T08:24:05.364Z,16.33
2019-02-23T08:29:08.548Z,22.20
2019-02-23T08:34:12.063Z,15.60
2019-02-23T08:39:15.391Z,18.80
2019-02-23T08:44:18.563Z,16.10
2019-02-23T08:49:22.056Z,20.13
2019-02-23T08:54:24.965Z,22.80
2019-02-23T08:59:28.286Z,16.73
2019-02-23T09:04:30.862Z,19.83
2019-02-23T09:09:34.137Z,23.60
2019-02-23T09:14:37.357Z,26.40
2019-02-23T09:19:40.244Z,20.50
2019-02-23T09:24:43.209Z,17.90
2019-02-23T09:29:46.344Z,18.77
2019-02-23T09:34:49.219Z,17.73
2019-02-23T09:39:52.054Z,15.97
2019-02-23T09:44:55.383Z,20.00
2019-02-23T09:49:58.912Z,13.97
2019-02-23T09:55:02.517Z,16.13
2019-02-23T10:00:07.139Z,24.63
2019-02-23T10:05:10.688Z,16.80
2019-02-23T10:10:13.906Z,15.10
2019-02-23T10:15:17.468Z,14.97
2019-02-23T10:20:20.908Z,14.33
2019-02-23T10:25:23.840Z,17.40
2019-02-23T10:30:27.296Z,14.73
2019-02-23T10:35:30.520Z,13.27
2019-02-23T10:40:33.761Z,10.67
2019-02-23T10:45:38.340Z,11.10
2019-02-23T10:50:41.549Z,14.47
2019-02-23T10:55:45.201Z,10.50
2019-02-23T11:00:48.500Z,10.03
2019-02-23T11:05:52.046Z,18.40
2019-02-23T11:10:55.220Z,15.60
2019-02-23T11:15:58.187Z,18.70
2019-02-23T11:21:01.284Z,15.67
2019-02-23T11:26:05.883Z,16.13
2019-02-23T11:31:09.153Z,15.17
2019-02-23T11:36:12.655Z,18.83
2019-02-23T11:41:15.958Z,19.37
2019-02-23T11:46:19.209Z,17.33
2019-02-23T11:51:22.389Z,18.50
2019-02-23T11:56:25.302Z,19.10
2019-02-23T12:01:28.106Z,18.90
2019-02-23T12:06:31.307Z,16.30
2019-02-23T12:11:34.532Z,19.10
2019-02-23T12:16:38.150Z,15.40
2019-02-23T12:21:40.940Z,15.40
2019-02-23T12:26:44.481Z,8.83
2019-02-23T12:31:47.875Z,12.43
2019-02-23T12:36:50.988Z,9.50
2019-02-23T12:41:54.246Z,11.07
2019-02-23T12:46:56.426Z,13.53
2019-02-23T12:51:59.475Z,16.00
2019-02-23T12:57:03.120Z,11.87
2019-02-23T13:02:06.418Z,11.80
2019-02-23T13:07:10.183Z,13.77
2019-02-23T13:12:53.867Z,12.80
2019-02-23T13:18:44.730Z,12.60
2019-02-23T13:24:29.302Z,9.00
2019-02-23T13:30:09.600Z,11.93
2019-02-23T13:35:31.066Z,11.13
2019-02-23T13:41:15.163Z,13.23
2019-02-23T13:47:11.761Z,12.50
2019-02-23T13:53:08.625Z,9.53
2019-02-23T13:58:39.508Z,11.40
2019-02-23T14:04:32.786Z,13.67
2019-02-23T14:10:30.052Z,17.47
2019-02-23T14:16:16.566Z,14.70
2019-02-23T14:21:47.007Z,17.37
2019-02-23T14:27:35.950Z,19.33
2019-02-23T14:33:29.794Z,14.33
2019-02-23T14:38:57.222Z,11.80
2019-02-23T14:44:31.278Z,12.20
2019-02-23T14:50:13.491Z,14.90
2019-02-23T14:55:58.108Z,13.33
2019-02-23T15:01:51.814Z,14.43
2019-02-23T15:07:34.607Z,18.50
2019-02-23T15:12:59.831Z,23.00
2019-02-23T15:18:55.720Z,16.13
2019-02-23T15:24:55.243Z,14.67
2019-02-23T15:30:45.901Z,12.60
2019-02-23T15:36:26.255Z,18.30
2019-02-23T15:42:09.829Z,13.13
2019-02-23T15:47:50.738Z,23.33
2019-02-23T15:52:53.994Z,20.73
2019-02-23T15:57:57.777Z,17.07
2019-02-23T16:03:00.745Z,15.77
2019-02-23T16:08:03.856Z,14.60
2019-02-23T16:13:07.381Z,14.17
2019-02-23T16:18:10.989Z,15.23
2019-02-23T16:23:13.583Z,17.70
2019-02-23T16:28:17.091Z,21.10
2019-02-23T16:33:20.114Z,29.13
2019-02-23T16:38:23.122Z,40.23
2019-02-23T16:43:26.659Z,42.80
2019-02-23T16:48:29.934Z,36.60
2019-02-23T16:53:32.847Z,27.57
2019-02-23T16:58:36.038Z,21.07
2019-02-23T17:03:39.684Z,17.40
2019-02-23T17:08:43.203Z,17.67
2019-02-23T17:13:48.209Z,28.87
2019-02-23T17:18:51.635Z,16.70
2019-02-23T17:23:55.495Z,16.30
2019-02-23T17:28:59.002Z,17.67
2019-02-23T17:34:02.253Z,18.40
2019-02-23T17:39:06.590Z,21.30
2019-02-23T17:44:10.053Z,25.30
2019-02-23T17:49:13.479Z,22.33
2019-02-23T17:54:16.816Z,27.27
2019-02-23T17:59:19.540Z,14.00
2019-02-23T18:04:22.889Z,16.85
2019-02-23T18:09:26.361Z,17.53
2019-02-23T18:14:30.028Z,15.80
2019-02-23T18:19:33.092Z,14.13
2019-02-23T18:24:36.705Z,16.03
2019-02-23T18:29:40.904Z,19.00
2019-02-23T18:34:44.489Z,15.30
2019-02-23T18:39:47.745Z,13.03
2019-02-23T18:44:51.270Z,17.43
2019-02-23T18:49:54.878Z,14.13
2019-02-23T18:54:58.394Z,13.13
2019-02-23T19:00:01.750Z,13.80
2019-02-23T19:05:06.610Z,14.70
2019-02-23T19:10:10.494Z,13.47
2019-02-23T19:15:13.492Z,16.90
2019-02-23T19:20:17.093Z,17.30
2019-02-23T19:25:20.635Z,16.13
2019-02-23T19:30:24.171Z,17.03
2019-02-23T19:35:29.132Z,12.67
2019-02-23T19:40:33.022Z,15.27
2019-02-23T19:45:36.671Z,15.57
2019-02-23T19:50:43.499Z,12.30
2019-02-23T19:55:46.840Z,12.47
2019-02-23T20:00:51.410Z,14.83
2019-02-23T20:05:55.675Z,17.13
2019-02-23T20:10:59.250Z,14.73
2019-02-23T20:16:04.374Z,19.60
2019-02-23T20:21:08.363Z,13.83
2019-02-23T20:26:11.770Z,18.80
2019-02-23T20:31:14.979Z,15.13
2019-02-23T20:36:18.986Z,15.23
2019-02-23T20:41:22.393Z,13.00
2019-02-23T20:46:28.083Z,15.93
2019-02-23T20:51:31.384Z,10.43
2019-02-23T20:56:34.832Z,17.43
2019-02-23T21:01:38.423Z,13.77
2019-02-23T21:06:41.719Z,14.40
2019-02-23T21:11:45.029Z,12.90
2019-02-23T21:16:48.803Z,13.80
2019-02-23T21:21:52.448Z,15.50
2019-02-23T21:26:55.990Z,11.20
2019-02-23T21:31:59.537Z,9.63
2019-02-23T21:37:02.893Z,11.87
2019-02-23T21:42:06.162Z,11.50
2019-02-23T21:47:09.365Z,17.03
2019-02-23T21:52:13.190Z,13.37
2019-02-23T21:57:22.195Z,11.13
2019-02-23T22:02:22.118Z,13.43
2019-02-23T22:07:25.447Z,10.47
2019-02-23T22:12:28.574Z,11.27
2019-02-23T22:17:32.167Z,15.67
2019-02-23T22:22:35.069Z,15.40
2019-02-23T22:27:38.552Z,12.37
2019-02-23T22:32:41.722Z,16.97
2019-02-23T22:37:44.913Z,14.50
2019-02-23T22:42:48.374Z,11.90
2019-02-23T22:47:51.545Z,11.07
2019-02-23T22:52:54.742Z,11.13
2019-02-23T22:57:57.235Z,16.90
2019-02-23T23:03:00.711Z,14.33
2019-02-23T23:08:04.074Z,15.43
2019-02-23T23:13:07.024Z,12.43
2019-02-23T23:18:11.508Z,11.67
2019-02-23T23:23:14.103Z,12.27
2019-02-23T23:28:17.072Z,12.97
2019-02-23T23:33:19.982Z,13.80
2019-02-23T23:38:22.819Z,11.37
2019-02-23T23:43:26.362Z,13.37
2019-02-23T23:48:29.191Z,10.63
2019-02-23T23:53:32.558Z,14.57
2019-02-23T23:58:36.024Z,11.70
